createdAt,value
2017-05-23T00:00:20.830Z,0
2017-05-23T00:01:29.795Z,0
2017-05-23T00:02:38.765Z,0
2017-05-23T00:03:47.900Z,0
2017-05-23T00:04:57.104Z,0
2017-05-23T00:06:06.503Z,0
2017-05-23T00:07:15.745Z,0
2017-05-23T00:08:24.818Z,0
2017-05-23T00:09:34.334Z,0
2017-05-23T00:10:45.443Z,0
2017-05-23T00:11:54.918Z,0
2017-05-23T00:13:04.550Z,0
2017-05-23T00:14:13.842Z,0
2017-05-23T00:15:22.802Z,0
2017-05-23T00:16:32.362Z,0
2017-05-23T00:17:41.325Z,0
2017-05-23T00:18:50.289Z,0
2017-05-23T00:19:59.633Z,0
2017-05-23T00:21:08.963Z,0
2017-05-23T00:22:18.416Z,0
2017-05-23T00:23:27.606Z,0
2017-05-23T00:24:36.964Z,0
2017-05-23T00:25:46.268Z,0
2017-05-23T00:26:55.488Z,0
2017-05-23T00:28:04.985Z,0
2017-05-23T00:29:14.005Z,0
2017-05-23T00:30:23.334Z,0
2017-05-23T00:31:32.296Z,0
2017-05-23T00:32:41.673Z,0
2017-05-23T00:33:50.936Z,0
2017-05-23T00:34:59.932Z,0
2017-05-23T00:36:09.251Z,0
2017-05-23T00:37:18.207Z,0
2017-05-23T00:38:27.265Z,0
2017-05-23T00:39:36.517Z,0
2017-05-23T00:40:45.478Z,0
2017-05-23T00:41:55.096Z,0
2017-05-23T00:43:04.145Z,0
2017-05-23T00:44:13.552Z,0
2017-05-23T00:45:22.767Z,0
2017-05-23T00:46:31.725Z,0
2017-05-23T00:47:41.046Z,0
2017-05-23T00:48:50.008Z,0
2017-05-23T00:49:58.969Z,0
2017-05-23T00:51:08.265Z,0
2017-05-23T00:52:17.266Z,0
2017-05-23T00:53:26.461Z,0
2017-05-23T00:54:35.571Z,0
2017-05-23T00:55:44.530Z,0
2017-05-23T00:56:54.306Z,0
2017-05-23T00:58:03.265Z,0
2017-05-23T00:59:13.062Z,0
2017-05-23T01:00:22.062Z,0
2017-05-23T01:01:31.666Z,0
2017-05-23T01:02:40.932Z,0
2017-05-23T01:03:50.401Z,0
2017-05-23T01:04:59.367Z,0
2017-05-23T01:06:08.337Z,0
2017-05-23T01:07:17.814Z,0
2017-05-23T01:08:27.032Z,0
2017-05-23T01:09:36.497Z,0
2017-05-23T01:10:45.544Z,0
2017-05-23T01:11:54.545Z,0
2017-05-23T01:13:03.597Z,0
2017-05-23T01:14:12.813Z,0
2017-05-23T01:15:22.438Z,0
2017-05-23T01:16:31.461Z,0
2017-05-23T01:17:40.878Z,0
2017-05-23T01:18:49.847Z,0
2017-05-23T01:19:59.058Z,0
2017-05-23T01:21:08.553Z,0
2017-05-23T01:22:17.520Z,0
2017-05-23T01:23:26.914Z,0
2017-05-23T01:24:35.877Z,0
2017-05-23T01:25:45.088Z,0
2017-05-23T01:26:54.334Z,0
2017-05-23T01:28:03.301Z,0
2017-05-23T01:29:12.294Z,0
2017-05-23T01:30:21.814Z,0
2017-05-23T01:31:31.061Z,0
2017-05-23T01:32:40.309Z,0
2017-05-23T01:33:49.274Z,0
2017-05-23T01:34:58.234Z,0
2017-05-23T01:36:07.202Z,0
2017-05-23T01:37:16.507Z,0
2017-05-23T01:38:25.488Z,0
2017-05-23T01:39:34.448Z,0
2017-05-23T01:40:43.409Z,0
2017-05-23T01:41:52.370Z,0
2017-05-23T01:43:01.589Z,0
2017-05-23T01:44:10.549Z,0
2017-05-23T01:45:19.507Z,0
2017-05-23T01:46:28.462Z,0
2017-05-23T01:47:37.423Z,0
2017-05-23T01:48:46.646Z,0
2017-05-23T01:49:55.608Z,0
2017-05-23T01:51:04.888Z,0
2017-05-23T01:52:14.180Z,0
2017-05-23T01:53:23.463Z,0
2017-05-23T01:54:32.744Z,0
2017-05-23T01:55:41.704Z,0
2017-05-23T01:56:50.661Z,0
2017-05-23T01:57:59.622Z,0
2017-05-23T01:59:08.584Z,0
2017-05-23T02:00:17.793Z,0
2017-05-23T02:01:26.761Z,0
2017-05-23T02:02:35.724Z,0
2017-05-23T02:03:44.683Z,0
2017-05-23T02:04:53.751Z,0
2017-05-23T02:06:02.966Z,0
2017-05-23T02:07:11.922Z,0
2017-05-23T02:08:21.211Z,0
2017-05-23T02:09:30.189Z,0
2017-05-23T02:10:39.471Z,0
2017-05-23T02:11:48.684Z,0
2017-05-23T02:12:57.737Z,0
2017-05-23T02:14:06.699Z,0
2017-05-23T02:15:15.986Z,0
2017-05-23T02:16:24.944Z,0
2017-05-23T02:17:34.160Z,0
2017-05-23T02:18:43.126Z,0
2017-05-23T02:19:52.084Z,0
2017-05-23T02:21:01.036Z,0
2017-05-23T02:22:09.996Z,0
2017-05-23T02:23:19.535Z,0
2017-05-23T02:24:28.500Z,0
2017-05-23T02:25:37.462Z,0
2017-05-23T02:26:46.424Z,0
2017-05-23T02:27:55.384Z,0
2017-05-23T02:29:04.608Z,0
2017-05-23T02:30:13.663Z,0
2017-05-23T02:31:22.621Z,0
2017-05-23T02:32:31.581Z,0
2017-05-23T02:33:40.866Z,0
2017-05-23T02:34:50.077Z,0
2017-05-23T02:35:59.039Z,0
2017-05-23T02:37:08.010Z,0
2017-05-23T02:38:17.294Z,0
2017-05-23T02:39:26.256Z,0
2017-05-23T02:40:35.465Z,0
2017-05-23T02:41:44.420Z,0
2017-05-23T02:42:53.399Z,0
2017-05-23T02:44:02.366Z,0
2017-05-23T02:45:11.326Z,0
2017-05-23T02:46:20.587Z,0
2017-05-23T02:47:29.599Z,0
2017-05-23T02:48:38.567Z,0
2017-05-23T02:49:47.543Z,0
2017-05-23T02:50:56.504Z,0
2017-05-23T02:52:05.764Z,0
2017-05-23T02:53:14.726Z,0
2017-05-23T02:54:23.773Z,0
2017-05-23T02:55:32.731Z,0
2017-05-23T02:56:41.687Z,0
2017-05-23T02:57:50.901Z,0
2017-05-23T02:58:59.884Z,0
2017-05-23T03:00:08.846Z,0
2017-05-23T03:01:18.140Z,0
2017-05-23T03:02:27.098Z,0
2017-05-23T03:03:36.303Z,0
2017-05-23T03:04:45.269Z,0
2017-05-23T03:05:54.227Z,0
2017-05-23T03:07:03.186Z,0
2017-05-23T03:08:12.160Z,0
2017-05-23T03:09:21.375Z,0
2017-05-23T03:10:30.336Z,0
2017-05-23T03:11:39.292Z,0
2017-05-23T03:12:48.269Z,0
2017-05-23T03:13:57.557Z,0
2017-05-23T03:15:09.941Z,0
2017-05-23T03:16:18.907Z,0
2017-05-23T03:17:27.990Z,0
2017-05-23T03:18:36.948Z,0
2017-05-23T03:19:45.909Z,0
2017-05-23T03:20:55.164Z,0
2017-05-23T03:22:04.129Z,0
2017-05-23T03:23:13.095Z,0
2017-05-23T03:24:22.055Z,0
2017-05-23T03:25:31.011Z,0
2017-05-23T03:26:40.272Z,5
2017-05-23T03:27:49.235Z,5
2017-05-23T03:28:58.193Z,5
2017-05-23T03:30:07.245Z,5
2017-05-23T03:31:16.204Z,5
2017-05-23T03:32:25.409Z,5
2017-05-23T03:33:34.370Z,5
2017-05-23T03:34:43.330Z,5
2017-05-23T03:35:52.381Z,5
2017-05-23T03:37:01.339Z,5
2017-05-23T03:38:10.547Z,5
2017-05-23T03:39:19.512Z,5
2017-05-23T03:40:28.468Z,5
2017-05-23T03:41:37.422Z,5
2017-05-23T03:42:46.379Z,5
2017-05-23T03:43:55.639Z,5
2017-05-23T03:45:04.602Z,10
2017-05-23T03:46:13.560Z,10
2017-05-23T03:47:22.526Z,10
2017-05-23T03:48:31.488Z,10
2017-05-23T03:49:40.704Z,10
2017-05-23T03:50:49.666Z,10
2017-05-23T03:51:58.711Z,10
2017-05-23T03:53:07.668Z,10
2017-05-23T03:54:16.631Z,10
2017-05-23T03:55:25.841Z,10
2017-05-23T03:56:34.799Z,10
2017-05-23T03:57:43.760Z,10
2017-05-23T03:58:52.731Z,10
2017-05-23T04:00:01.696Z,10
2017-05-23T04:01:10.906Z,10
2017-05-23T04:02:19.864Z,10
2017-05-23T04:03:28.825Z,10
2017-05-23T04:04:37.789Z,10
2017-05-23T04:05:46.837Z,10
2017-05-23T04:06:56.048Z,10
2017-05-23T04:08:05.103Z,10
2017-05-23T04:09:14.069Z,10
2017-05-23T04:10:23.038Z,10
2017-05-23T04:11:32.001Z,15
2017-05-23T04:12:41.218Z,15
2017-05-23T04:13:50.188Z,15
2017-05-23T04:14:59.236Z,15
2017-05-23T04:16:08.196Z,15
2017-05-23T04:17:17.156Z,15
2017-05-23T04:18:26.419Z,15
2017-05-23T04:19:35.380Z,15
2017-05-23T04:20:44.341Z,15
2017-05-23T04:21:53.339Z,15
2017-05-23T04:23:02.394Z,15
2017-05-23T04:24:11.695Z,15
2017-05-23T04:25:20.661Z,15
2017-05-23T04:26:29.626Z,15
2017-05-23T04:27:38.591Z,15
2017-05-23T04:28:47.559Z,15
2017-05-23T04:29:56.775Z,15
2017-05-23T04:31:05.734Z,15
2017-05-23T04:32:14.693Z,15
2017-05-23T04:33:23.658Z,20
2017-05-23T04:34:32.621Z,20
2017-05-23T04:35:41.834Z,20
2017-05-23T04:36:50.793Z,20
2017-05-23T04:37:59.752Z,20
2017-05-23T04:39:08.711Z,20
2017-05-23T04:40:18.001Z,20
2017-05-23T04:41:27.218Z,25
2017-05-23T04:42:36.177Z,25
2017-05-23T04:43:45.146Z,25
2017-05-23T04:44:54.109Z,25
2017-05-23T04:46:03.064Z,25
2017-05-23T04:47:12.274Z,25
2017-05-23T04:48:21.240Z,25
2017-05-23T04:49:30.528Z,25
2017-05-23T04:50:39.490Z,25
2017-05-23T04:51:48.451Z,30
2017-05-23T04:52:57.664Z,30
2017-05-23T04:54:06.629Z,30
2017-05-23T04:55:15.594Z,30
2017-05-23T04:56:24.555Z,30
2017-05-23T04:57:33.524Z,30
2017-05-23T04:58:42.737Z,30
2017-05-23T04:59:51.764Z,30
2017-05-23T05:01:00.731Z,30
2017-05-23T05:02:09.693Z,30
2017-05-23T05:03:18.657Z,30
2017-05-23T05:04:28.012Z,30
2017-05-23T05:05:37.035Z,30
2017-05-23T05:06:45.995Z,30
2017-05-23T05:07:55.088Z,30
2017-05-23T05:09:04.052Z,30
2017-05-23T05:10:13.268Z,30
2017-05-23T05:11:22.237Z,30
2017-05-23T05:12:31.201Z,30
2017-05-23T05:13:40.161Z,30
2017-05-23T05:14:49.127Z,30
2017-05-23T05:15:58.334Z,35
2017-05-23T05:17:07.309Z,35
2017-05-23T05:18:16.273Z,30
2017-05-23T05:19:25.249Z,35
2017-05-23T05:20:34.224Z,35
2017-05-23T05:21:43.439Z,35
2017-05-23T05:22:52.721Z,35
2017-05-23T05:24:01.676Z,35
2017-05-23T05:25:10.638Z,35
2017-05-23T05:26:19.774Z,35
2017-05-23T05:27:28.983Z,35
2017-05-23T05:28:38.031Z,35
2017-05-23T05:29:46.995Z,35
2017-05-23T05:30:56.045Z,35
2017-05-23T05:32:05.005Z,40
2017-05-23T05:33:14.270Z,40
2017-05-23T05:34:23.232Z,40
2017-05-23T05:35:32.246Z,40
2017-05-23T05:36:41.208Z,40
2017-05-23T05:37:50.169Z,40
2017-05-23T05:38:59.383Z,40
2017-05-23T05:40:08.346Z,40
2017-05-23T05:41:17.308Z,40
2017-05-23T05:42:26.596Z,40
2017-05-23T05:43:35.563Z,40
2017-05-23T05:44:44.826Z,40
2017-05-23T05:45:53.781Z,40
2017-05-23T05:47:02.829Z,35
2017-05-23T05:48:11.790Z,35
2017-05-23T05:49:20.756Z,30
2017-05-23T05:50:30.017Z,30
2017-05-23T05:51:38.984Z,30
2017-05-23T05:52:47.958Z,30
2017-05-23T05:53:56.917Z,35
2017-05-23T05:55:05.880Z,35
2017-05-23T05:56:15.234Z,35
2017-05-23T05:57:24.197Z,35
2017-05-23T05:58:33.167Z,35
2017-05-23T05:59:42.213Z,35
2017-05-23T06:00:51.175Z,35
2017-05-23T06:02:00.384Z,40
2017-05-23T06:03:09.346Z,40
2017-05-23T06:04:18.304Z,50
2017-05-23T06:05:27.264Z,70
2017-05-23T06:06:36.233Z,65
2017-05-23T06:07:45.583Z,50
2017-05-23T06:08:54.548Z,40
2017-05-23T06:10:03.514Z,40
2017-05-23T06:11:12.477Z,40
2017-05-23T06:12:21.458Z,40
2017-05-23T06:13:30.668Z,40
2017-05-23T06:14:39.635Z,40
2017-05-23T06:15:48.599Z,40
2017-05-23T06:16:57.566Z,45
2017-05-23T06:18:06.534Z,45
2017-05-23T06:19:15.837Z,45
2017-05-23T06:20:24.904Z,45
2017-05-23T06:21:33.883Z,45
2017-05-23T06:22:42.952Z,45
2017-05-23T06:23:51.942Z,45
2017-05-23T06:25:01.225Z,45
2017-05-23T06:26:10.210Z,50
2017-05-23T06:27:19.191Z,60
2017-05-23T06:28:28.177Z,55
2017-05-23T06:29:37.167Z,50
2017-05-23T06:30:46.452Z,50
2017-05-23T06:31:55.768Z,50
2017-05-23T06:33:04.752Z,50
2017-05-23T06:34:13.740Z,50
2017-05-23T06:35:22.722Z,50
2017-05-23T06:36:32.011Z,50
2017-05-23T06:37:40.993Z,50
2017-05-23T06:38:49.987Z,60
2017-05-23T06:39:58.979Z,55
2017-05-23T06:41:07.962Z,55
2017-05-23T06:42:17.244Z,55
2017-05-23T06:43:26.226Z,55
2017-05-23T06:44:35.220Z,55
2017-05-23T06:45:44.243Z,55
2017-05-23T06:46:53.319Z,60
2017-05-23T06:48:02.615Z,60
2017-05-23T06:49:11.609Z,60
2017-05-23T06:50:20.593Z,60
2017-05-23T06:51:29.665Z,60
2017-05-23T06:52:38.835Z,60
2017-05-23T06:53:48.125Z,60
2017-05-23T06:54:57.113Z,60
2017-05-23T06:56:06.111Z,60
2017-05-23T06:57:15.105Z,65
2017-05-23T06:58:24.070Z,60
2017-05-23T06:59:33.332Z,60
2017-05-23T07:00:42.292Z,60
2017-05-23T07:01:52.645Z,60
2017-05-23T07:03:02.926Z,60
2017-05-23T07:04:12.046Z,65
2017-05-23T07:05:21.264Z,60
2017-05-23T07:06:30.224Z,65
2017-05-23T07:07:39.276Z,65
2017-05-23T07:08:48.247Z,65
2017-05-23T07:09:57.215Z,65
2017-05-23T07:11:06.479Z,65
2017-05-23T07:12:15.440Z,70
2017-05-23T07:13:24.402Z,70
2017-05-23T07:14:33.364Z,70
2017-05-23T07:15:42.335Z,75
2017-05-23T07:16:51.554Z,75
2017-05-23T07:18:00.523Z,70
2017-05-23T07:19:09.487Z,70
2017-05-23T07:20:18.455Z,70
2017-05-23T07:21:28.262Z,70
2017-05-23T07:22:37.845Z,65
2017-05-23T07:23:47.701Z,65
2017-05-23T07:24:56.678Z,65
2017-05-23T07:26:05.643Z,70
2017-05-23T07:27:14.599Z,70
2017-05-23T07:28:23.863Z,70
2017-05-23T07:29:32.829Z,70
2017-05-23T07:30:41.798Z,75
2017-05-23T07:31:50.762Z,75
2017-05-23T07:32:59.734Z,75
2017-05-23T07:34:09.001Z,75
2017-05-23T07:35:17.958Z,75
2017-05-23T07:36:26.918Z,80
2017-05-23T07:37:35.884Z,85
2017-05-23T07:38:44.852Z,80
2017-05-23T07:39:54.292Z,80
2017-05-23T07:41:03.254Z,80
2017-05-23T07:42:12.218Z,75
2017-05-23T07:43:21.184Z,75
2017-05-23T07:44:30.161Z,70
2017-05-23T07:45:39.747Z,70
2017-05-23T07:46:48.773Z,60
2017-05-23T07:47:57.755Z,60
2017-05-23T07:49:06.718Z,65
2017-05-23T07:50:16.012Z,65
2017-05-23T07:51:25.595Z,65
2017-05-23T07:52:34.556Z,70
2017-05-23T07:53:43.526Z,70
2017-05-23T07:54:52.493Z,70
2017-05-23T07:56:01.784Z,70
2017-05-23T07:57:11.011Z,70
2017-05-23T07:58:19.974Z,70
2017-05-23T07:59:28.938Z,75
2017-05-23T08:00:37.899Z,70
2017-05-23T08:01:46.861Z,70
2017-05-23T08:02:56.126Z,70
2017-05-23T08:04:06.897Z,70
2017-05-23T08:05:15.871Z,75
2017-05-23T08:06:24.831Z,75
2017-05-23T08:07:34.120Z,80
2017-05-23T08:08:43.338Z,80
2017-05-23T08:09:52.313Z,80
2017-05-23T08:11:01.278Z,80
2017-05-23T08:12:10.244Z,75
2017-05-23T08:13:19.214Z,80
2017-05-23T08:14:28.489Z,80
2017-05-23T08:15:37.488Z,80
2017-05-23T08:16:46.450Z,80
2017-05-23T08:17:55.413Z,85
2017-05-23T08:19:04.379Z,90
2017-05-23T08:20:13.591Z,90
2017-05-23T08:21:22.556Z,100
2017-05-23T08:22:31.526Z,100
2017-05-23T08:23:40.536Z,100
2017-05-23T08:24:49.503Z,90
2017-05-23T08:25:58.768Z,90
2017-05-23T08:27:07.732Z,95
2017-05-23T08:28:16.787Z,100
2017-05-23T08:29:25.752Z,100
2017-05-23T08:30:34.712Z,95
2017-05-23T08:31:43.922Z,95
2017-05-23T08:32:52.894Z,90
2017-05-23T08:34:01.864Z,95
2017-05-23T08:35:10.828Z,95
2017-05-23T08:36:19.794Z,100
2017-05-23T08:37:29.056Z,100
2017-05-23T08:38:38.023Z,100
2017-05-23T08:39:47.040Z,95
2017-05-23T08:40:56.007Z,95
2017-05-23T08:42:04.979Z,100
2017-05-23T08:43:14.246Z,100
2017-05-23T08:44:23.301Z,105
2017-05-23T08:45:32.289Z,95
2017-05-23T08:46:41.260Z,95
2017-05-23T08:47:50.560Z,90
2017-05-23T08:49:00.164Z,90
2017-05-23T08:50:09.142Z,95
2017-05-23T08:51:18.430Z,95
2017-05-23T08:52:27.394Z,95
2017-05-23T08:53:36.361Z,95
2017-05-23T08:54:45.574Z,90
2017-05-23T08:55:54.535Z,85
2017-05-23T08:57:03.503Z,75
2017-05-23T08:58:12.465Z,75
2017-05-23T08:59:21.434Z,75
2017-05-23T09:00:30.676Z,80
2017-05-23T09:01:39.677Z,85
2017-05-23T09:02:48.752Z,85
2017-05-23T09:03:57.724Z,85
2017-05-23T09:05:07.942Z,85
2017-05-23T09:06:17.387Z,85
2017-05-23T09:07:26.655Z,85
2017-05-23T09:08:35.789Z,95
2017-05-23T09:09:44.890Z,90
2017-05-23T09:10:54.491Z,95
2017-05-23T09:12:04.159Z,95
2017-05-23T09:13:13.313Z,95
2017-05-23T09:14:22.564Z,95
2017-05-23T09:15:31.946Z,95
2017-05-23T09:16:41.116Z,100
2017-05-23T09:17:50.728Z,90
2017-05-23T09:18:59.826Z,90
2017-05-23T09:20:09.075Z,95
2017-05-23T09:21:18.466Z,110
2017-05-23T09:22:27.638Z,120
2017-05-23T09:23:37.072Z,70
2017-05-23T09:24:46.205Z,70
2017-05-23T09:25:55.244Z,70
2017-05-23T09:27:04.392Z,65
2017-05-23T09:28:13.632Z,55
2017-05-23T09:29:23.796Z,45
2017-05-23T09:30:33.159Z,45
2017-05-23T09:31:42.504Z,45
2017-05-23T09:32:51.801Z,50
2017-05-23T09:34:00.986Z,70
2017-05-23T09:35:10.650Z,100
2017-05-23T09:36:19.870Z,105
2017-05-23T09:37:29.088Z,95
2017-05-23T09:38:38.370Z,55
2017-05-23T09:39:47.884Z,65
2017-05-23T09:40:57.637Z,90
2017-05-23T09:42:06.748Z,70
2017-05-23T09:43:15.856Z,65
2017-05-23T09:44:25.300Z,95
2017-05-23T09:45:34.470Z,55
2017-05-23T09:46:43.989Z,80
2017-05-23T09:47:53.193Z,80
2017-05-23T09:49:02.441Z,85
2017-05-23T09:50:12.546Z,90
2017-05-23T09:51:22.092Z,85
2017-05-23T09:52:31.630Z,85
2017-05-23T09:53:40.981Z,80
2017-05-23T09:54:50.105Z,80
2017-05-23T09:55:59.214Z,80
2017-05-23T09:57:08.247Z,80
2017-05-23T09:58:17.807Z,80
2017-05-23T09:59:26.978Z,80
2017-05-23T10:00:36.075Z,85
2017-05-23T10:01:45.342Z,85
2017-05-23T10:02:54.741Z,85
2017-05-23T10:04:04.012Z,85
2017-05-23T10:05:12.977Z,85
2017-05-23T10:06:21.947Z,80
2017-05-23T10:07:31.238Z,80
2017-05-23T10:08:40.202Z,80
2017-05-23T10:09:49.421Z,80
2017-05-23T10:10:58.381Z,45
2017-05-23T10:12:07.350Z,40
2017-05-23T10:13:16.410Z,35
2017-05-23T10:14:25.381Z,45
2017-05-23T10:15:34.599Z,45
2017-05-23T10:16:43.619Z,95
2017-05-23T10:17:52.585Z,100
2017-05-23T10:19:01.551Z,100
2017-05-23T10:20:10.515Z,90
2017-05-23T10:21:19.874Z,95
2017-05-23T10:22:28.837Z,90
2017-05-23T10:23:37.815Z,85
2017-05-23T10:24:47.149Z,90
2017-05-23T10:25:57.739Z,85
2017-05-23T10:27:08.134Z,80
2017-05-23T10:28:17.194Z,80
2017-05-23T10:29:26.172Z,85
2017-05-23T10:30:35.138Z,85
2017-05-23T10:31:44.104Z,85
2017-05-23T10:32:53.320Z,80
2017-05-23T10:34:02.309Z,80
2017-05-23T10:35:11.364Z,80
2017-05-23T10:36:20.331Z,70
2017-05-23T10:37:29.299Z,80
2017-05-23T10:38:38.516Z,85
2017-05-23T10:39:47.484Z,80
2017-05-23T10:40:56.452Z,75
2017-05-23T10:42:05.413Z,80
2017-05-23T10:43:14.382Z,80
2017-05-23T10:44:23.926Z,90
2017-05-23T10:45:32.889Z,90
2017-05-23T10:46:41.854Z,85
2017-05-23T10:47:50.826Z,90
2017-05-23T10:48:59.786Z,85
2017-05-23T10:50:08.997Z,80
2017-05-23T10:51:17.962Z,80
2017-05-23T10:52:26.929Z,40
2017-05-23T10:53:35.893Z,40
2017-05-23T10:54:44.864Z,55
2017-05-23T10:55:54.408Z,40
2017-05-23T10:57:03.377Z,40
2017-05-23T10:58:12.338Z,45
2017-05-23T10:59:21.312Z,90
2017-05-23T11:00:30.283Z,105
2017-05-23T11:01:39.636Z,100
2017-05-23T11:02:48.712Z,95
2017-05-23T11:03:57.683Z,100
2017-05-23T11:05:06.655Z,90
2017-05-23T11:06:15.951Z,85
2017-05-23T11:07:25.278Z,80
2017-05-23T11:08:34.300Z,70
2017-05-23T11:09:43.269Z,80
2017-05-23T11:10:52.235Z,85
2017-05-23T11:12:01.286Z,95
2017-05-23T11:13:10.556Z,85
2017-05-23T11:14:19.525Z,80
2017-05-23T11:15:28.677Z,75
2017-05-23T11:16:37.646Z,75
2017-05-23T11:17:46.613Z,75
2017-05-23T11:18:56.282Z,75
2017-05-23T11:20:05.287Z,70
2017-05-23T11:21:14.287Z,75
2017-05-23T11:22:23.282Z,75
2017-05-23T11:23:32.281Z,75
2017-05-23T11:24:41.569Z,75
2017-05-23T11:25:50.643Z,70
2017-05-23T11:26:59.639Z,70
2017-05-23T11:28:08.693Z,70
2017-05-23T11:29:17.691Z,65
2017-05-23T11:30:26.994Z,65
2017-05-23T11:31:35.988Z,65
2017-05-23T11:32:45.050Z,65
2017-05-23T11:33:54.139Z,70
2017-05-23T11:35:03.450Z,70
2017-05-23T11:36:12.688Z,65
2017-05-23T11:37:21.683Z,65
2017-05-23T11:38:30.683Z,65
2017-05-23T11:39:39.675Z,65
2017-05-23T11:40:48.663Z,70
2017-05-23T11:41:57.993Z,65
2017-05-23T11:43:07.063Z,65
2017-05-23T11:44:16.132Z,65
2017-05-23T11:45:25.582Z,65
2017-05-23T11:46:34.776Z,65
2017-05-23T11:47:44.095Z,65
2017-05-23T11:48:53.068Z,65
2017-05-23T11:50:02.041Z,65
2017-05-23T11:51:11.021Z,65
2017-05-23T11:52:19.994Z,70
2017-05-23T11:53:29.219Z,70
2017-05-23T11:54:38.272Z,70
2017-05-23T11:55:47.240Z,40
2017-05-23T11:56:56.587Z,75
2017-05-23T11:58:05.635Z,70
2017-05-23T11:59:14.978Z,65
2017-05-23T12:00:23.945Z,65
2017-05-23T12:01:33.237Z,70
2017-05-23T12:02:42.201Z,70
2017-05-23T12:03:51.168Z,65
2017-05-23T12:05:00.388Z,65
2017-05-23T12:06:09.351Z,65
2017-05-23T12:07:18.315Z,65
2017-05-23T12:08:27.284Z,65
2017-05-23T12:09:36.253Z,60
2017-05-23T12:10:45.557Z,60
2017-05-23T12:11:54.846Z,60
2017-05-23T12:13:03.810Z,60
2017-05-23T12:14:12.779Z,60
2017-05-23T12:15:21.739Z,60
2017-05-23T12:16:30.958Z,65
2017-05-23T12:17:39.917Z,60
2017-05-23T12:18:48.889Z,65
2017-05-23T12:19:57.865Z,65
2017-05-23T12:21:06.830Z,60
2017-05-23T12:22:16.183Z,60
2017-05-23T12:23:25.147Z,65
2017-05-23T12:24:34.113Z,60
2017-05-23T12:25:43.074Z,60
2017-05-23T12:26:52.129Z,60
2017-05-23T12:28:01.724Z,60
2017-05-23T12:29:10.698Z,55
2017-05-23T12:30:19.659Z,60
2017-05-23T12:31:28.623Z,60
2017-05-23T12:32:37.588Z,60
2017-05-23T12:33:46.950Z,60
2017-05-23T12:34:55.915Z,60
2017-05-23T12:36:04.881Z,65
2017-05-23T12:37:13.845Z,60
2017-05-23T12:38:22.808Z,60
2017-05-23T12:39:32.027Z,60
2017-05-23T12:40:40.999Z,60
2017-05-23T12:41:49.968Z,60
2017-05-23T12:42:59.145Z,65
2017-05-23T12:44:08.106Z,65
2017-05-23T12:45:17.325Z,65
2017-05-23T12:46:26.302Z,70
2017-05-23T12:47:35.272Z,55
2017-05-23T12:48:44.245Z,55
2017-05-23T12:49:53.216Z,45
2017-05-23T12:51:02.483Z,65
2017-05-23T12:52:11.807Z,65
2017-05-23T12:53:20.778Z,65
2017-05-23T12:54:29.749Z,65
2017-05-23T12:55:38.709Z,60
2017-05-23T12:56:48.064Z,45
2017-05-23T12:57:57.059Z,45
2017-05-23T12:59:06.118Z,60
2017-05-23T13:00:15.571Z,45
2017-05-23T13:01:24.546Z,55
2017-05-23T13:02:33.991Z,45
2017-05-23T13:03:42.957Z,50
2017-05-23T13:04:52.059Z,60
2017-05-23T13:06:01.042Z,55
2017-05-23T13:07:10.010Z,70
2017-05-23T13:08:19.277Z,70
2017-05-23T13:09:28.242Z,75
2017-05-23T13:10:37.212Z,90
2017-05-23T13:11:46.177Z,95
2017-05-23T13:12:55.298Z,90
2017-05-23T13:14:04.541Z,90
2017-05-23T13:15:13.506Z,60
2017-05-23T13:16:22.476Z,70
2017-05-23T13:17:31.444Z,65
2017-05-23T13:18:40.420Z,80
2017-05-23T13:19:49.642Z,75
2017-05-23T13:20:58.612Z,80
2017-05-23T13:22:07.591Z,80
2017-05-23T13:23:16.562Z,70
2017-05-23T13:24:25.542Z,70
2017-05-23T13:25:34.756Z,65
2017-05-23T13:26:43.806Z,65
2017-05-23T13:27:52.861Z,70
2017-05-23T13:29:01.830Z,75
2017-05-23T13:30:10.796Z,80
2017-05-23T13:31:20.108Z,85
2017-05-23T13:32:29.403Z,95
2017-05-23T13:33:38.376Z,80
2017-05-23T13:34:47.344Z,100
2017-05-23T13:35:56.310Z,90
2017-05-23T13:37:05.529Z,90
2017-05-23T13:38:14.497Z,90
2017-05-23T13:39:23.468Z,75
2017-05-23T13:40:32.468Z,75
2017-05-23T13:41:41.440Z,75
2017-05-23T13:42:50.681Z,80
2017-05-23T13:43:59.651Z,100
2017-05-23T13:45:08.618Z,95
2017-05-23T13:46:17.909Z,60
2017-05-23T13:47:26.882Z,50
2017-05-23T13:48:36.151Z,50
2017-05-23T13:49:45.122Z,50
2017-05-23T13:50:54.087Z,50
2017-05-23T13:52:03.148Z,45
2017-05-23T13:53:12.117Z,50
2017-05-23T13:54:21.342Z,50
2017-05-23T13:55:30.311Z,50
2017-05-23T13:56:39.283Z,50
2017-05-23T13:57:48.256Z,55
2017-05-23T13:58:57.373Z,60
2017-05-23T14:00:06.595Z,75
2017-05-23T14:01:15.574Z,60
2017-05-23T14:02:24.538Z,55
2017-05-23T14:03:33.501Z,50
2017-05-23T14:04:42.463Z,70
2017-05-23T14:05:51.817Z,70
2017-05-23T14:07:01.112Z,80
2017-05-23T14:08:10.187Z,80
2017-05-23T14:09:19.152Z,95
2017-05-23T14:10:28.117Z,75
2017-05-23T14:11:37.649Z,65
2017-05-23T14:12:46.623Z,60
2017-05-23T14:13:55.590Z,55
2017-05-23T14:15:04.556Z,60
2017-05-23T14:16:13.525Z,65
2017-05-23T14:17:22.744Z,50
2017-05-23T14:18:31.716Z,45
2017-05-23T14:19:40.681Z,45
2017-05-23T14:20:49.642Z,45
2017-05-23T14:21:58.605Z,45
2017-05-23T14:23:08.096Z,45
2017-05-23T14:24:17.447Z,50
2017-05-23T14:25:26.413Z,45
2017-05-23T14:26:35.383Z,55
2017-05-23T14:27:44.350Z,45
2017-05-23T14:28:53.572Z,45
2017-05-23T14:30:02.543Z,45
2017-05-23T14:31:11.509Z,50
2017-05-23T14:32:20.476Z,40
2017-05-23T14:33:29.442Z,50
2017-05-23T14:34:38.716Z,45
2017-05-23T14:35:47.691Z,55
2017-05-23T14:36:56.655Z,45
2017-05-23T14:38:05.627Z,45
2017-05-23T14:39:14.596Z,50
2017-05-23T14:40:23.810Z,50
2017-05-23T14:41:32.772Z,50
2017-05-23T14:42:41.734Z,50
2017-05-23T14:43:50.877Z,50
2017-05-23T14:44:59.848Z,60
2017-05-23T14:46:09.203Z,65
2017-05-23T14:47:18.168Z,60
2017-05-23T14:48:27.143Z,60
2017-05-23T14:49:36.113Z,55
2017-05-23T14:50:45.078Z,55
2017-05-23T14:51:54.303Z,50
2017-05-23T14:53:03.269Z,50
2017-05-23T14:54:12.327Z,50
2017-05-23T14:55:21.375Z,50
2017-05-23T14:56:30.337Z,50
2017-05-23T14:57:39.555Z,55
2017-05-23T14:58:48.533Z,45
2017-05-23T14:59:57.497Z,45
2017-05-23T15:01:06.549Z,45
2017-05-23T15:02:15.696Z,60
2017-05-23T15:03:24.964Z,60
2017-05-23T15:04:34.017Z,50
2017-05-23T15:05:42.981Z,50
2017-05-23T15:06:51.950Z,50
2017-05-23T15:08:00.983Z,50
2017-05-23T15:09:10.266Z,40
2017-05-23T15:10:19.231Z,45
2017-05-23T15:11:28.202Z,40
2017-05-23T15:12:37.177Z,45
2017-05-23T15:13:46.144Z,45
2017-05-23T15:14:55.414Z,50
2017-05-23T15:16:04.384Z,60
2017-05-23T15:17:13.347Z,55
2017-05-23T15:18:22.316Z,55
2017-05-23T15:19:31.280Z,55
2017-05-23T15:20:40.500Z,55
2017-05-23T15:21:50.329Z,45
2017-05-23T15:23:01.117Z,45
2017-05-23T15:24:10.295Z,45
2017-05-23T15:25:19.263Z,45
2017-05-23T15:26:28.575Z,45
2017-05-23T15:27:37.630Z,45
2017-05-23T15:28:46.608Z,45
2017-05-23T15:29:57.045Z,40
2017-05-23T15:31:06.873Z,40
2017-05-23T15:32:16.090Z,35
2017-05-23T15:33:25.076Z,35
2017-05-23T15:34:34.043Z,35
2017-05-23T15:35:43.010Z,35
2017-05-23T15:36:51.978Z,30
2017-05-23T15:38:01.289Z,30
2017-05-23T15:39:10.297Z,30
2017-05-23T15:40:19.427Z,35
2017-05-23T15:41:28.516Z,30
2017-05-23T15:42:37.828Z,30
2017-05-23T15:43:47.198Z,30
2017-05-23T15:44:56.175Z,30
2017-05-23T15:46:05.395Z,30
2017-05-23T15:47:14.480Z,35
2017-05-23T15:48:23.803Z,35
2017-05-23T15:49:33.584Z,35
2017-05-23T15:50:42.791Z,35
2017-05-23T15:51:51.984Z,35
2017-05-23T15:53:01.274Z,35
2017-05-23T15:54:10.567Z,40
2017-05-23T15:55:19.919Z,40
2017-05-23T15:56:29.163Z,40
2017-05-23T15:57:38.212Z,40
2017-05-23T15:58:47.303Z,40
2017-05-23T15:59:56.268Z,40
2017-05-23T16:01:05.487Z,45
2017-05-23T16:02:14.464Z,45
2017-05-23T16:03:23.439Z,45
2017-05-23T16:04:32.404Z,40
2017-05-23T16:05:41.369Z,45
2017-05-23T16:06:50.635Z,45
2017-05-23T16:07:59.614Z,50
2017-05-23T16:09:08.575Z,50
2017-05-23T16:10:17.575Z,50
2017-05-23T16:11:26.628Z,50
2017-05-23T16:12:35.988Z,50
2017-05-23T16:13:45.008Z,50
2017-05-23T16:14:53.978Z,50
2017-05-23T16:16:02.982Z,40
2017-05-23T16:17:11.952Z,45
2017-05-23T16:18:21.216Z,45
2017-05-23T16:19:30.189Z,45
2017-05-23T16:20:39.488Z,50
2017-05-23T16:21:48.508Z,45
2017-05-23T16:22:57.493Z,45
2017-05-23T16:24:07.087Z,45
2017-05-23T16:25:16.051Z,45
2017-05-23T16:26:25.013Z,45
2017-05-23T16:27:33.978Z,40
2017-05-23T16:28:42.944Z,45
2017-05-23T16:29:52.206Z,40
2017-05-23T16:31:01.321Z,40
2017-05-23T16:32:10.464Z,35